createdAt,value
2022-12-27T00:00:22.049Z,2.40
2022-12-27T00:03:24.001Z,0.80
2022-12-27T00:06:27.973Z,0.65
2022-12-27T00:09:30.019Z,0.50
2022-12-27T00:12:34.272Z,1.27
2022-12-27T00:15:36.686Z,0.82
2022-12-27T00:18:39.395Z,0.52
2022-12-27T00:21:42.674Z,0.65
2022-12-27T00:24:44.573Z,0.40
2022-12-27T00:27:46.433Z,0.80
2022-12-27T00:30:54.558Z,0.60
2022-12-27T00:33:58.845Z,1.55
2022-12-27T00:37:04.422Z,0.77
2022-12-27T00:40:07.384Z,1.58
2022-12-27T00:43:09.285Z,0.90
2022-12-27T00:46:11.310Z,1.50
2022-12-27T00:49:13.250Z,0.88
2022-12-27T00:52:16.541Z,1.30
2022-12-27T00:55:18.395Z,0.50
2022-12-27T00:58:20.665Z,2.83
2022-12-27T01:01:24.638Z,1.45
2022-12-27T01:04:26.632Z,0.85
2022-12-27T01:07:29.973Z,2.70
2022-12-27T01:10:32.545Z,0.60
2022-12-27T01:13:35.122Z,2.00
2022-12-27T01:16:38.826Z,1.38
2022-12-27T01:19:40.681Z,1.92
2022-12-27T01:22:43.976Z,1.08
2022-12-27T01:25:46.084Z,1.15
2022-12-27T01:28:48.782Z,0.85
2022-12-27T01:31:50.628Z,0.80
2022-12-27T01:34:52.495Z,1.38
2022-12-27T01:37:58.777Z,1.45
2022-12-27T01:41:00.601Z,1.38
2022-12-27T01:44:22.645Z,1.10
2022-12-27T01:47:31.521Z,2.88
2022-12-27T01:50:36.898Z,1.10
2022-12-27T01:53:44.803Z,0.50
2022-12-27T01:56:47.091Z,0.90
2022-12-27T01:59:51.520Z,1.67
2022-12-27T02:02:53.749Z,1.05
2022-12-27T02:05:56.840Z,1.10
2022-12-27T02:09:07.391Z,0.65
2022-12-27T02:12:10.608Z,0.50
2022-12-27T02:15:12.898Z,2.00
2022-12-27T02:18:15.394Z,1.00
2022-12-27T02:21:51.667Z,1.88
2022-12-27T02:25:14.993Z,1.55
2022-12-27T02:28:31.550Z,1.35
2022-12-27T02:31:40.444Z,2.00
2022-12-27T02:34:52.075Z,1.15
2022-12-27T02:37:58.135Z,1.48
2022-12-27T02:41:02.455Z,1.88
2022-12-27T02:44:04.648Z,3.67
2022-12-27T02:47:18.231Z,1.33
2022-12-27T02:50:20.651Z,1.52
2022-12-27T02:53:33.215Z,2.00
2022-12-27T02:56:45.283Z,2.25
2022-12-27T03:00:02.664Z,2.55
2022-12-27T03:03:24.381Z,2.92
2022-12-27T03:06:52.563Z,1.60
2022-12-27T03:10:21.209Z,2.05
2022-12-27T03:13:32.779Z,2.00
2022-12-27T03:16:42.873Z,3.25
2022-12-27T03:19:49.651Z,1.42
2022-12-27T03:22:56.811Z,1.30
2022-12-27T03:26:01.745Z,1.50
2022-12-27T03:29:06.604Z,1.35
2022-12-27T03:32:11.751Z,1.88
2022-12-27T03:35:19.673Z,1.83
2022-12-27T03:38:24.492Z,0.80
2022-12-27T03:41:29.563Z,1.05
2022-12-27T03:44:31.561Z,2.22
2022-12-27T03:47:41.424Z,2.40
2022-12-27T03:50:48.900Z,1.08
2022-12-27T03:53:56.565Z,1.23
2022-12-27T03:57:03.877Z,1.15
2022-12-27T04:00:07.274Z,2.78
2022-12-27T04:03:11.056Z,1.85
2022-12-27T04:06:15.432Z,2.03
2022-12-27T04:09:17.460Z,1.58
2022-12-27T04:12:19.380Z,1.42
2022-12-27T04:15:21.289Z,1.10
2022-12-27T04:18:23.079Z,2.88
2022-12-27T04:21:26.334Z,1.17
2022-12-27T04:24:28.141Z,2.15
2022-12-27T04:27:29.994Z,1.52
2022-12-27T04:30:31.791Z,2.95
2022-12-27T04:33:33.668Z,4.60
2022-12-27T04:36:39.852Z,2.38
2022-12-27T04:39:41.862Z,1.00
2022-12-27T04:42:43.688Z,1.83
2022-12-27T04:45:45.589Z,1.05
2022-12-27T04:48:47.454Z,1.77
2022-12-27T04:51:50.760Z,2.58
2022-12-27T04:54:52.618Z,2.50
2022-12-27T04:57:55.318Z,2.53
2022-12-27T05:00:59.679Z,2.38
2022-12-27T05:04:01.568Z,2.38
2022-12-27T05:07:06.004Z,1.00
2022-12-27T05:10:09.064Z,1.73
2022-12-27T05:13:11.724Z,1.83
2022-12-27T05:16:14.196Z,3.08
2022-12-27T05:19:17.624Z,4.38
2022-12-27T05:22:21.091Z,2.38
2022-12-27T05:25:22.965Z,2.08
2022-12-27T05:28:24.851Z,1.50
2022-12-27T05:31:28.795Z,2.40
2022-12-27T05:34:30.714Z,3.05
2022-12-27T05:37:33.947Z,1.25
2022-12-27T05:40:36.288Z,1.90
2022-12-27T05:43:38.791Z,2.03
2022-12-27T05:46:40.679Z,2.13
2022-12-27T05:49:42.507Z,4.22
2022-12-27T05:52:45.781Z,2.85
2022-12-27T05:55:54.071Z,1.50
2022-12-27T05:58:55.974Z,1.20
2022-12-27T06:01:57.915Z,1.45
2022-12-27T06:05:02.868Z,1.55
2022-12-27T06:08:06.558Z,1.58
2022-12-27T06:11:10.401Z,2.95
2022-12-27T06:14:13.181Z,2.60
2022-12-27T06:17:14.998Z,3.75
2022-12-27T06:20:17.406Z,3.63
2022-12-27T06:23:23.026Z,2.40
2022-12-27T06:26:26.910Z,2.33
2022-12-27T06:29:30.589Z,2.80
2022-12-27T06:32:32.496Z,2.03
2022-12-27T06:35:34.399Z,1.98
2022-12-27T06:38:38.067Z,2.22
2022-12-27T06:41:40.285Z,3.10
2022-12-27T06:44:42.195Z,2.90
2022-12-27T06:47:44.082Z,3.22
2022-12-27T06:50:48.118Z,2.90
2022-12-27T06:53:51.482Z,2.53
2022-12-27T06:56:53.349Z,1.88
2022-12-27T06:59:55.253Z,5.32
2022-12-27T07:02:57.164Z,2.90
2022-12-27T07:06:01.848Z,1.02
2022-12-27T07:09:05.589Z,1.80
2022-12-27T07:12:10.919Z,3.15
2022-12-27T07:15:12.837Z,1.05
2022-12-27T07:18:14.728Z,2.83
2022-12-27T07:21:18.729Z,5.18
2022-12-27T07:24:22.000Z,2.72
2022-12-27T07:27:24.259Z,2.47
2022-12-27T07:30:27.297Z,3.45
2022-12-27T07:33:31.588Z,2.38
2022-12-27T07:36:37.206Z,1.77
2022-12-27T07:39:40.464Z,2.58
2022-12-27T07:42:42.316Z,3.83
2022-12-27T07:45:46.003Z,7.70
2022-12-27T07:48:48.309Z,5.47
2022-12-27T07:51:50.139Z,4.07
2022-12-27T07:54:53.368Z,4.72
2022-12-27T07:57:56.641Z,4.80
2022-12-27T08:00:58.577Z,1.77
2022-12-27T08:04:00.450Z,2.35
2022-12-27T08:07:05.881Z,4.32
2022-12-27T08:10:10.609Z,1.63
2022-12-27T08:13:12.725Z,3.85
2022-12-27T08:16:18.551Z,3.95
2022-12-27T08:19:20.370Z,3.72
2022-12-27T08:22:23.930Z,3.70
2022-12-27T08:25:27.383Z,3.90
2022-12-27T08:28:29.327Z,3.53
2022-12-27T08:31:33.724Z,3.97
2022-12-27T08:34:35.583Z,5.68
2022-12-27T08:37:37.511Z,3.80
2022-12-27T08:40:44.902Z,4.55
2022-12-27T08:43:46.830Z,3.60
2022-12-27T08:46:48.873Z,4.70
2022-12-27T08:49:50.747Z,2.97
2022-12-27T08:52:52.610Z,3.17
2022-12-27T08:55:57.146Z,2.20
2022-12-27T08:58:59.164Z,2.55
2022-12-27T09:02:01.028Z,5.57
2022-12-27T09:05:02.995Z,3.78
2022-12-27T09:16:10.808Z,5.40
2022-12-27T09:19:12.689Z,4.53
2022-12-27T09:22:14.692Z,4.38
2022-12-27T09:25:16.612Z,4.15
2022-12-27T09:28:18.514Z,2.22
2022-12-27T09:31:22.750Z,1.70
2022-12-27T09:34:24.649Z,2.95
2022-12-27T09:37:26.517Z,3.00
2022-12-27T09:40:28.398Z,5.57
2022-12-27T09:43:38.891Z,3.70
2022-12-27T09:46:52.425Z,4.05
2022-12-27T09:49:58.648Z,5.50
2022-12-27T09:53:07.545Z,3.47
2022-12-27T09:56:12.772Z,3.58
2022-12-27T09:59:24.971Z,3.67
2022-12-27T10:02:29.182Z,3.05
2022-12-27T10:05:34.951Z,3.38
2022-12-27T10:08:45.259Z,4.97
2022-12-27T10:11:54.399Z,3.78
2022-12-27T10:18:17.474Z,3.25
2022-12-27T10:21:22.858Z,3.65
2022-12-27T10:24:38.106Z,5.13
2022-12-27T10:27:41.729Z,2.00
2022-12-27T10:30:44.671Z,5.10
2022-12-27T10:33:49.506Z,4.18
2022-12-27T10:36:52.863Z,3.13
2022-12-27T10:39:58.192Z,5.30
2022-12-27T10:43:03.662Z,4.47
2022-12-27T10:46:16.811Z,2.88
2022-12-27T10:49:24.869Z,2.20
2022-12-27T10:52:35.124Z,4.55
2022-12-27T10:55:39.567Z,3.33
2022-12-27T10:58:44.094Z,4.22
2022-12-27T11:01:48.210Z,5.50
2022-12-27T11:05:00.099Z,1.70
2022-12-27T11:08:19.243Z,3.55
2022-12-27T11:11:23.648Z,1.42
2022-12-27T11:14:25.499Z,5.97
2022-12-27T11:17:35.410Z,4.25
2022-12-27T11:20:40.872Z,4.15
2022-12-27T11:23:45.817Z,2.78
2022-12-27T11:26:54.214Z,5.70
2022-12-27T11:29:58.901Z,2.65
2022-12-27T11:33:06.361Z,5.05
2022-12-27T11:36:11.440Z,3.80
2022-12-27T11:39:37.975Z,2.60
2022-12-27T11:42:43.433Z,2.80
2022-12-27T11:45:50.793Z,2.45
2022-12-27T11:48:56.114Z,3.60
2022-12-27T11:52:47.013Z,4.45
2022-12-27T11:56:11.702Z,3.42
2022-12-27T11:59:39.434Z,3.40
2022-12-27T12:03:01.547Z,3.22
2022-12-27T12:06:15.511Z,3.40
2022-12-27T12:09:44.263Z,2.85
2022-12-27T12:13:14.982Z,5.22
2022-12-27T12:16:30.459Z,2.85
2022-12-27T12:19:51.456Z,3.65
2022-12-27T12:23:08.468Z,4.57
2022-12-27T12:26:18.703Z,3.55
2022-12-27T12:29:39.097Z,3.42
2022-12-27T12:32:59.435Z,2.58
2022-12-27T12:36:19.723Z,2.15
2022-12-27T12:39:34.597Z,2.03
2022-12-27T12:42:52.862Z,5.28
2022-12-27T12:46:08.852Z,2.55
2022-12-27T12:49:29.712Z,2.70
2022-12-27T12:53:00.259Z,1.45
2022-12-27T12:56:17.793Z,3.40
2022-12-27T12:59:40.307Z,2.83
2022-12-27T13:03:13.189Z,1.55
2022-12-27T13:06:34.496Z,1.80
2022-12-27T13:09:50.072Z,1.63
2022-12-27T13:12:59.144Z,1.83
2022-12-27T13:16:15.975Z,2.50
2022-12-27T13:19:36.468Z,3.30
2022-12-27T13:22:49.469Z,1.80
2022-12-27T13:26:01.817Z,2.78
2022-12-27T13:29:43.001Z,2.28
2022-12-27T13:33:05.515Z,1.88
2022-12-27T13:36:18.905Z,1.65
2022-12-27T13:39:33.914Z,1.50
2022-12-27T13:42:54.000Z,2.75
2022-12-27T13:46:13.680Z,3.13
2022-12-27T13:49:32.363Z,1.67
2022-12-27T13:52:52.205Z,2.70
2022-12-27T13:56:43.143Z,2.05
2022-12-27T14:00:03.995Z,5.80
2022-12-27T14:03:42.177Z,3.60
2022-12-27T14:07:08.859Z,1.63
2022-12-27T14:10:21.826Z,1.95
2022-12-27T14:13:28.365Z,2.45
2022-12-27T14:16:42.749Z,2.38
2022-12-27T14:20:20.239Z,2.25
2022-12-27T14:23:40.426Z,1.80
2022-12-27T14:27:16.305Z,2.92
2022-12-27T14:30:31.943Z,2.85
2022-12-27T14:34:15.025Z,7.35
2022-12-27T14:37:37.589Z,4.47
2022-12-27T14:41:08.144Z,3.25
2022-12-27T14:44:48.990Z,3.35
2022-12-27T14:48:24.121Z,5.70
2022-12-27T14:52:12.390Z,3.42
2022-12-27T14:55:35.842Z,5.55
2022-12-27T14:58:54.549Z,5.57
2022-12-27T15:02:06.477Z,12.23
2022-12-27T15:05:27.031Z,2.90
2022-12-27T15:08:42.372Z,3.60
2022-12-27T15:11:55.410Z,6.88
2022-12-27T15:15:21.260Z,8.82
2022-12-27T15:18:47.560Z,3.85
2022-12-27T15:21:58.558Z,5.72
2022-12-27T15:25:13.040Z,6.28
2022-12-27T15:28:24.654Z,5.80
2022-12-27T15:31:38.665Z,5.75
2022-12-27T15:34:54.504Z,5.45
2022-12-27T15:38:07.653Z,5.45
2022-12-27T15:41:47.172Z,8.82
2022-12-27T15:44:58.360Z,13.75
2022-12-27T15:48:24.273Z,17.65
2022-12-27T15:51:34.863Z,9.80
2022-12-27T15:55:10.475Z,13.68
2022-12-27T15:58:14.919Z,12.90
2022-12-27T16:01:27.510Z,20.10
2022-12-27T16:04:46.476Z,13.23
2022-12-27T16:07:50.936Z,11.45
2022-12-27T16:10:54.012Z,4.68
2022-12-27T16:14:23.538Z,4.97
2022-12-27T16:17:35.575Z,21.40
2022-12-27T16:20:40.069Z,4.93
2022-12-27T16:23:50.490Z,4.38
2022-12-27T16:26:57.876Z,3.03
2022-12-27T16:30:00.035Z,3.78
2022-12-27T16:33:02.041Z,6.28
2022-12-27T16:36:24.848Z,4.88
2022-12-27T16:39:53.386Z,3.88
2022-12-27T16:43:32.007Z,10.50
2022-12-27T16:46:59.733Z,20.02
2022-12-27T16:50:18.599Z,5.20
2022-12-27T16:53:44.794Z,6.53
2022-12-27T16:56:47.424Z,6.95
2022-12-27T16:59:57.202Z,6.22
2022-12-27T17:03:29.302Z,4.35
2022-12-27T17:06:53.989Z,9.95
2022-12-27T17:10:31.128Z,3.67
2022-12-27T17:13:42.486Z,5.03
2022-12-27T17:16:48.501Z,11.43
2022-12-27T17:20:03.384Z,11.18
2022-12-27T17:23:07.507Z,10.60
2022-12-27T17:26:32.188Z,9.90
2022-12-27T17:30:06.635Z,6.70
2022-12-27T17:33:37.784Z,2.72
2022-12-27T17:36:54.885Z,2.53
2022-12-27T17:40:13.746Z,4.85
2022-12-27T17:43:32.008Z,4.83
2022-12-27T17:46:44.313Z,6.72
2022-12-27T17:49:47.399Z,6.20
2022-12-27T17:53:14.993Z,6.10
2022-12-27T17:56:19.962Z,7.15
2022-12-27T17:59:26.671Z,4.70
2022-12-27T18:02:32.699Z,4.38
2022-12-27T18:05:40.777Z,9.27
2022-12-27T18:08:42.987Z,6.05
2022-12-27T18:11:45.183Z,5.18
2022-12-27T18:14:54.528Z,4.20
2022-12-27T18:17:59.647Z,3.42
2022-12-27T18:21:03.548Z,3.80
2022-12-27T18:24:23.739Z,4.05
2022-12-27T18:27:25.937Z,10.13
2022-12-27T18:30:33.162Z,11.85
2022-12-27T18:33:41.336Z,7.00
2022-12-27T18:36:50.578Z,6.95
2022-12-27T18:39:55.003Z,4.63
2022-12-27T18:42:56.949Z,3.85
2022-12-27T18:46:03.080Z,3.15
2022-12-27T18:49:05.476Z,2.70
2022-12-27T18:52:13.404Z,8.00
2022-12-27T18:55:19.138Z,13.13
2022-12-27T18:58:24.229Z,8.75
2022-12-27T19:01:36.973Z,4.88
2022-12-27T19:04:39.494Z,5.97
2022-12-27T19:07:42.190Z,5.32
2022-12-27T19:10:48.367Z,5.70
2022-12-27T19:13:54.033Z,6.28
2022-12-27T19:17:04.091Z,7.80
2022-12-27T19:20:21.326Z,6.30
2022-12-27T19:23:32.497Z,6.32
2022-12-27T19:26:35.614Z,4.25
2022-12-27T19:29:49.111Z,6.68
2022-12-27T19:32:52.451Z,9.10
2022-12-27T19:35:54.774Z,8.85
2022-12-27T19:38:56.838Z,9.15
2022-12-27T19:42:02.439Z,6.65
2022-12-27T19:45:04.632Z,8.63
2022-12-27T19:48:10.202Z,8.35
2022-12-27T19:51:15.646Z,6.70
2022-12-27T19:54:20.969Z,7.05
2022-12-27T19:57:23.143Z,5.47
2022-12-27T20:00:25.598Z,3.50
2022-12-27T20:03:30.164Z,3.85
2022-12-27T20:06:32.283Z,5.28
2022-12-27T20:09:34.620Z,2.58
2022-12-27T20:12:36.595Z,4.88
2022-12-27T20:15:38.851Z,3.03
2022-12-27T20:18:42.992Z,2.33
2022-12-27T20:21:45.414Z,6.47
2022-12-27T20:24:47.325Z,6.32
2022-12-27T20:27:49.655Z,7.75
2022-12-27T20:30:52.336Z,16.92
2022-12-27T20:33:57.049Z,12.82
2022-12-27T20:36:59.414Z,13.55
2022-12-27T20:40:01.479Z,14.40
2022-12-27T20:43:03.351Z,14.30
2022-12-27T20:46:06.273Z,16.23
2022-12-27T20:49:09.858Z,10.88
2022-12-27T20:52:11.685Z,13.13
2022-12-27T20:55:13.974Z,12.57
2022-12-27T20:58:16.332Z,9.77
2022-12-27T21:01:20.692Z,6.38
2022-12-27T21:04:25.048Z,6.40
2022-12-27T21:07:27.384Z,3.70
2022-12-27T21:10:29.632Z,4.90
2022-12-27T21:13:31.602Z,3.97
2022-12-27T21:16:35.015Z,4.63
2022-12-27T21:19:38.365Z,6.88
2022-12-27T21:22:40.539Z,5.43
2022-12-27T21:25:42.454Z,10.65
2022-12-27T21:28:44.958Z,6.55
2022-12-27T21:31:46.892Z,6.82
2022-12-27T21:34:50.255Z,5.63
2022-12-27T21:37:52.319Z,7.15
2022-12-27T21:40:58.739Z,5.72
2022-12-27T21:44:01.812Z,6.22
2022-12-27T21:47:03.835Z,3.17
2022-12-27T21:50:07.694Z,2.50
2022-12-27T21:53:09.554Z,4.75
2022-12-27T21:56:12.621Z,17.65
2022-12-27T21:59:14.562Z,52.15
2022-12-27T22:02:16.848Z,63.88
2022-12-27T22:05:20.587Z,10.32
2022-12-27T22:08:22.691Z,5.97
2022-12-27T22:11:25.767Z,4.10
2022-12-27T22:14:29.579Z,4.65
2022-12-27T22:17:35.276Z,3.33
2022-12-27T22:20:45.071Z,4.20
2022-12-27T22:23:52.963Z,5.55
2022-12-27T22:26:54.789Z,3.22
2022-12-27T22:29:56.667Z,3.42
2022-12-27T22:32:58.794Z,2.95
2022-12-27T22:36:04.657Z,5.95
2022-12-27T22:39:06.711Z,4.68
2022-12-27T22:42:08.534Z,5.28
2022-12-27T22:45:10.750Z,4.43
2022-12-27T22:48:12.573Z,3.13
2022-12-27T22:51:17.360Z,3.83
2022-12-27T22:54:19.488Z,5.15
2022-12-27T22:57:21.312Z,3.05
2022-12-27T23:00:23.319Z,2.72
2022-12-27T23:03:25.477Z,3.42
2022-12-27T23:06:29.766Z,2.90
2022-12-27T23:09:31.583Z,4.30
2022-12-27T23:12:33.494Z,2.88
2022-12-27T23:15:35.315Z,3.65
2022-12-27T23:18:38.083Z,3.20
2022-12-27T23:21:41.990Z,7.63
2022-12-27T23:24:43.849Z,5.57
2022-12-27T23:27:45.717Z,6.38
2022-12-27T23:30:48.414Z,16.42
2022-12-27T23:33:50.656Z,5.13
2022-12-27T23:36:53.833Z,1.95
2022-12-27T23:39:55.772Z,3.00
2022-12-27T23:43:12.411Z,3.10
2022-12-27T23:46:22.622Z,2.67
2022-12-27T23:49:24.501Z,3.00
2022-12-27T23:52:27.730Z,1.88
2022-12-27T23:55:29.838Z,3.70
2022-12-27T23:58:31.763Z,3.35
